sensor_id;sensor_type;location;lat;lon;timestamp;P1;durP1;ratioP1;P2;durP2;ratioP2
7835;SDS011;3963;42.658;23.298;2023-05-10T00:00:43;17.33;;;10.47;;
7835;SDS011;3963;42.658;23.298;2023-05-10T00:03:10;15.50;;;10.00;;
7835;SDS011;3963;42.658;23.298;2023-05-10T00:05:37;16.50;;;10.63;;
7835;SDS011;3963;42.658;23.298;2023-05-10T00:08:04;16.17;;;10.80;;
7835;SDS011;3963;42.658;23.298;2023-05-10T00:10:30;17.57;;;11.23;;
7835;SDS011;3963;42.658;23.298;2023-05-10T00:12:57;16.60;;;10.83;;
7835;SDS011;3963;42.658;23.298;2023-05-10T00:15:25;16.40;;;11.07;;
7835;SDS011;3963;42.658;23.298;2023-05-10T00:17:52;19.10;;;11.00;;
7835;SDS011;3963;42.658;23.298;2023-05-10T00:20:19;18.47;;;11.90;;
7835;SDS011;3963;42.658;23.298;2023-05-10T00:22:46;19.43;;;11.40;;
7835;SDS011;3963;42.658;23.298;2023-05-10T00:25:13;19.40;;;11.40;;
7835;SDS011;3963;42.658;23.298;2023-05-10T00:27:40;20.23;;;12.03;;
7835;SDS011;3963;42.658;23.298;2023-05-10T00:30:07;18.47;;;11.73;;
7835;SDS011;3963;42.658;23.298;2023-05-10T00:32:35;23.43;;;12.87;;
7835;SDS011;3963;42.658;23.298;2023-05-10T00:35:05;19.70;;;12.03;;
7835;SDS011;3963;42.658;23.298;2023-05-10T00:37:32;18.93;;;11.70;;
7835;SDS011;3963;42.658;23.298;2023-05-10T00:39:59;18.47;;;12.23;;
7835;SDS011;3963;42.658;23.298;2023-05-10T00:42:26;18.70;;;12.50;;
7835;SDS011;3963;42.658;23.298;2023-05-10T00:44:52;20.93;;;12.23;;
7835;SDS011;3963;42.658;23.298;2023-05-10T00:47:20;21.17;;;12.80;;
7835;SDS011;3963;42.658;23.298;2023-05-10T00:49:49;20.20;;;13.83;;
7835;SDS011;3963;42.658;23.298;2023-05-10T00:52:16;21.47;;;13.00;;
7835;SDS011;3963;42.658;23.298;2023-05-10T00:54:43;18.20;;;12.93;;
7835;SDS011;3963;42.658;23.298;2023-05-10T00:57:10;21.23;;;13.77;;
7835;SDS011;3963;42.658;23.298;2023-05-10T00:59:37;21.00;;;14.07;;
7835;SDS011;3963;42.658;23.298;2023-05-10T01:02:04;19.50;;;12.13;;
7835;SDS011;3963;42.658;23.298;2023-05-10T01:04:31;23.80;;;14.07;;
7835;SDS011;3963;42.658;23.298;2023-05-10T01:06:59;21.17;;;13.73;;
7835;SDS011;3963;42.658;23.298;2023-05-10T01:09:26;21.53;;;13.93;;
7835;SDS011;3963;42.658;23.298;2023-05-10T01:11:54;23.90;;;14.80;;
7835;SDS011;3963;42.658;23.298;2023-05-10T01:14:21;18.60;;;13.03;;
7835;SDS011;3963;42.658;23.298;2023-05-10T01:16:48;24.07;;;14.43;;
7835;SDS011;3963;42.658;23.298;2023-05-10T01:19:17;18.07;;;13.27;;
7835;SDS011;3963;42.658;23.298;2023-05-10T01:21:49;24.07;;;14.47;;
7835;SDS011;3963;42.658;23.298;2023-05-10T01:24:45;21.20;;;13.20;;
7835;SDS011;3963;42.658;23.298;2023-05-10T01:30:53;22.67;;;13.93;;
7835;SDS011;3963;42.658;23.298;2023-05-10T01:33:35;20.10;;;13.40;;
7835;SDS011;3963;42.658;23.298;2023-05-10T01:36:06;24.10;;;14.07;;
7835;SDS011;3963;42.658;23.298;2023-05-10T01:38:41;16.80;;;11.37;;
7835;SDS011;3963;42.658;23.298;2023-05-10T01:41:17;18.93;;;12.30;;
7835;SDS011;3963;42.658;23.298;2023-05-10T01:43:54;16.50;;;11.50;;
7835;SDS011;3963;42.658;23.298;2023-05-10T01:46:26;17.47;;;12.37;;
7835;SDS011;3963;42.658;23.298;2023-05-10T01:48:57;28.40;;;11.80;;
7835;SDS011;3963;42.658;23.298;2023-05-10T01:51:27;18.33;;;12.17;;
7835;SDS011;3963;42.658;23.298;2023-05-10T01:54:00;18.30;;;11.40;;
7835;SDS011;3963;42.658;23.298;2023-05-10T01:56:29;16.53;;;11.10;;
7835;SDS011;3963;42.658;23.298;2023-05-10T01:58:58;15.93;;;10.87;;
7835;SDS011;3963;42.658;23.298;2023-05-10T02:01:29;19.13;;;11.83;;
7835;SDS011;3963;42.658;23.298;2023-05-10T02:03:59;18.43;;;11.67;;
7835;SDS011;3963;42.658;23.298;2023-05-10T02:06:27;17.97;;;11.90;;
7835;SDS011;3963;42.658;23.298;2023-05-10T02:08:54;17.20;;;11.53;;
7835;SDS011;3963;42.658;23.298;2023-05-10T02:11:22;13.47;;;9.63;;
7835;SDS011;3963;42.658;23.298;2023-05-10T02:13:50;14.80;;;10.70;;
7835;SDS011;3963;42.658;23.298;2023-05-10T02:16:20;15.37;;;10.43;;
7835;SDS011;3963;42.658;23.298;2023-05-10T02:18:50;12.73;;;10.10;;
7835;SDS011;3963;42.658;23.298;2023-05-10T02:21:20;14.30;;;10.53;;
7835;SDS011;3963;42.658;23.298;2023-05-10T02:23:50;14.40;;;10.57;;
7835;SDS011;3963;42.658;23.298;2023-05-10T02:26:19;18.87;;;10.63;;
7835;SDS011;3963;42.658;23.298;2023-05-10T02:28:50;13.80;;;9.43;;
7835;SDS011;3963;42.658;23.298;2023-05-10T02:31:18;14.77;;;9.90;;
7835;SDS011;3963;42.658;23.298;2023-05-10T02:33:45;13.97;;;9.77;;
7835;SDS011;3963;42.658;23.298;2023-05-10T02:36:13;14.13;;;10.23;;
7835;SDS011;3963;42.658;23.298;2023-05-10T02:38:42;16.60;;;9.70;;
7835;SDS011;3963;42.658;23.298;2023-05-10T02:41:11;13.10;;;9.23;;
7835;SDS011;3963;42.658;23.298;2023-05-10T02:43:39;14.73;;;9.73;;
7835;SDS011;3963;42.658;23.298;2023-05-10T02:46:07;14.97;;;10.23;;
7835;SDS011;3963;42.658;23.298;2023-05-10T02:48:34;14.57;;;10.13;;
7835;SDS011;3963;42.658;23.298;2023-05-10T02:51:03;13.97;;;9.43;;
7835;SDS011;3963;42.658;23.298;2023-05-10T02:53:33;14.50;;;9.73;;
7835;SDS011;3963;42.658;23.298;2023-05-10T02:56:09;14.13;;;9.17;;
7835;SDS011;3963;42.658;23.298;2023-05-10T02:58:39;14.40;;;10.10;;
7835;SDS011;3963;42.658;23.298;2023-05-10T03:01:06;17.43;;;10.13;;
7835;SDS011;3963;42.658;23.298;2023-05-10T03:03:33;17.73;;;10.33;;
7835;SDS011;3963;42.658;23.298;2023-05-10T03:06:00;17.30;;;10.83;;
7835;SDS011;3963;42.658;23.298;2023-05-10T03:08:29;13.93;;;10.47;;
7835;SDS011;3963;42.658;23.298;2023-05-10T03:11:01;16.43;;;9.97;;
7835;SDS011;3963;42.658;23.298;2023-05-10T03:13:36;13.63;;;10.10;;
7835;SDS011;3963;42.658;23.298;2023-05-10T03:16:12;13.83;;;10.27;;
7835;SDS011;3963;42.658;23.298;2023-05-10T03:18:42;17.70;;;10.20;;
7835;SDS011;3963;42.658;23.298;2023-05-10T03:21:14;16.57;;;11.50;;
7835;SDS011;3963;42.658;23.298;2023-05-10T03:23:46;13.47;;;9.43;;
7835;SDS011;3963;42.658;23.298;2023-05-10T03:26:20;14.90;;;9.43;;
7835;SDS011;3963;42.658;23.298;2023-05-10T03:28:50;16.30;;;11.00;;
7835;SDS011;3963;42.658;23.298;2023-05-10T03:31:18;13.90;;;10.00;;
7835;SDS011;3963;42.658;23.298;2023-05-10T03:33:46;15.60;;;10.30;;
7835;SDS011;3963;42.658;23.298;2023-05-10T03:36:13;14.77;;;10.27;;
7835;SDS011;3963;42.658;23.298;2023-05-10T03:38:41;14.13;;;8.97;;
7835;SDS011;3963;42.658;23.298;2023-05-10T03:41:07;14.50;;;9.90;;
7835;SDS011;3963;42.658;23.298;2023-05-10T03:43:36;14.87;;;9.73;;
7835;SDS011;3963;42.658;23.298;2023-05-10T03:46:03;15.77;;;10.37;;
7835;SDS011;3963;42.658;23.298;2023-05-10T03:48:31;16.23;;;10.50;;
7835;SDS011;3963;42.658;23.298;2023-05-10T03:50:58;13.73;;;9.47;;
7835;SDS011;3963;42.658;23.298;2023-05-10T03:53:25;15.80;;;9.97;;
7835;SDS011;3963;42.658;23.298;2023-05-10T03:55:52;17.67;;;9.77;;
7835;SDS011;3963;42.658;23.298;2023-05-10T03:58:18;15.20;;;10.00;;
7835;SDS011;3963;42.658;23.298;2023-05-10T04:00:46;15.73;;;9.57;;
7835;SDS011;3963;42.658;23.298;2023-05-10T04:03:13;13.07;;;9.63;;
7835;SDS011;3963;42.658;23.298;2023-05-10T04:05:40;12.40;;;8.67;;
7835;SDS011;3963;42.658;23.298;2023-05-10T04:08:07;14.93;;;9.70;;
7835;SDS011;3963;42.658;23.298;2023-05-10T04:10:34;12.73;;;9.83;;
7835;SDS011;3963;42.658;23.298;2023-05-10T04:13:01;14.10;;;9.67;;
7835;SDS011;3963;42.658;23.298;2023-05-10T04:15:28;13.20;;;9.70;;
7835;SDS011;3963;42.658;23.298;2023-05-10T04:17:56;15.93;;;9.03;;
7835;SDS011;3963;42.658;23.298;2023-05-10T04:20:23;13.13;;;8.63;;
7835;SDS011;3963;42.658;23.298;2023-05-10T04:22:50;15.40;;;9.80;;
7835;SDS011;3963;42.658;23.298;2023-05-10T04:25:17;11.77;;;9.13;;
7835;SDS011;3963;42.658;23.298;2023-05-10T04:27:43;17.33;;;9.20;;
7835;SDS011;3963;42.658;23.298;2023-05-10T04:30:10;14.90;;;9.53;;
7835;SDS011;3963;42.658;23.298;2023-05-10T04:32:38;13.40;;;9.87;;
7835;SDS011;3963;42.658;23.298;2023-05-10T04:35:06;14.10;;;8.90;;
7835;SDS011;3963;42.658;23.298;2023-05-10T04:37:35;14.97;;;8.77;;
7835;SDS011;3963;42.658;23.298;2023-05-10T04:40:02;14.20;;;10.00;;
7835;SDS011;3963;42.658;23.298;2023-05-10T04:42:29;13.67;;;8.67;;
7835;SDS011;3963;42.658;23.298;2023-05-10T04:44:56;15.87;;;9.93;;
7835;SDS011;3963;42.658;23.298;2023-05-10T04:47:23;18.37;;;10.63;;
7835;SDS011;3963;42.658;23.298;2023-05-10T04:49:50;14.60;;;10.27;;
7835;SDS011;3963;42.658;23.298;2023-05-10T04:52:19;13.23;;;9.33;;
7835;SDS011;3963;42.658;23.298;2023-05-10T04:54:45;14.67;;;9.63;;
7835;SDS011;3963;42.658;23.298;2023-05-10T04:57:12;15.87;;;10.80;;
7835;SDS011;3963;42.658;23.298;2023-05-10T04:59:39;14.87;;;10.10;;
7835;SDS011;3963;42.658;23.298;2023-05-10T05:02:06;12.63;;;9.57;;
7835;SDS011;3963;42.658;23.298;2023-05-10T05:04:33;13.83;;;9.13;;
7835;SDS011;3963;42.658;23.298;2023-05-10T05:07:00;13.70;;;9.43;;
7835;SDS011;3963;42.658;23.298;2023-05-10T05:09:29;13.13;;;8.90;;
7835;SDS011;3963;42.658;23.298;2023-05-10T05:11:57;13.83;;;10.23;;
7835;SDS011;3963;42.658;23.298;2023-05-10T05:14:24;14.97;;;9.70;;
7835;SDS011;3963;42.658;23.298;2023-05-10T05:16:51;16.97;;;10.90;;
7835;SDS011;3963;42.658;23.298;2023-05-10T05:19:18;15.80;;;10.30;;
7835;SDS011;3963;42.658;23.298;2023-05-10T05:21:45;16.87;;;10.80;;
7835;SDS011;3963;42.658;23.298;2023-05-10T05:24:11;16.80;;;11.07;;
7835;SDS011;3963;42.658;23.298;2023-05-10T05:26:42;20.03;;;10.67;;
7835;SDS011;3963;42.658;23.298;2023-05-10T05:29:09;15.90;;;10.73;;
7835;SDS011;3963;42.658;23.298;2023-05-10T05:31:36;16.93;;;11.07;;
7835;SDS011;3963;42.658;23.298;2023-05-10T05:34:02;14.37;;;10.27;;
7835;SDS011;3963;42.658;23.298;2023-05-10T05:36:29;15.83;;;10.93;;
7835;SDS011;3963;42.658;23.298;2023-05-10T05:38:56;15.80;;;10.57;;
7835;SDS011;3963;42.658;23.298;2023-05-10T05:41:23;16.03;;;11.07;;
7835;SDS011;3963;42.658;23.298;2023-05-10T05:43:52;16.23;;;11.23;;
7835;SDS011;3963;42.658;23.298;2023-05-10T05:46:19;15.03;;;11.57;;
7835;SDS011;3963;42.658;23.298;2023-05-10T05:48:46;21.17;;;12.57;;
7835;SDS011;3963;42.658;23.298;2023-05-10T05:51:12;17.97;;;11.83;;
7835;SDS011;3963;42.658;23.298;2023-05-10T05:53:39;22.97;;;12.67;;
7835;SDS011;3963;42.658;23.298;2023-05-10T05:56:06;22.23;;;12.67;;
7835;SDS011;3963;42.658;23.298;2023-05-10T05:58:34;17.00;;;11.50;;
7835;SDS011;3963;42.658;23.298;2023-05-10T06:01:02;18.17;;;11.80;;
7835;SDS011;3963;42.658;23.298;2023-05-10T06:03:31;18.63;;;12.03;;
7835;SDS011;3963;42.658;23.298;2023-05-10T06:05:57;18.90;;;11.70;;
7835;SDS011;3963;42.658;23.298;2023-05-10T06:08:25;18.40;;;11.07;;
7835;SDS011;3963;42.658;23.298;2023-05-10T06:10:52;21.30;;;12.20;;
7835;SDS011;3963;42.658;23.298;2023-05-10T06:13:19;20.90;;;12.60;;
7835;SDS011;3963;42.658;23.298;2023-05-10T06:15:46;16.70;;;10.97;;
7835;SDS011;3963;42.658;23.298;2023-05-10T06:18:14;21.03;;;13.27;;
7835;SDS011;3963;42.658;23.298;2023-05-10T06:20:41;24.93;;;13.50;;
7835;SDS011;3963;42.658;23.298;2023-05-10T06:23:08;20.20;;;12.53;;
7835;SDS011;3963;42.658;23.298;2023-05-10T06:25:34;20.57;;;12.93;;
7835;SDS011;3963;42.658;23.298;2023-05-10T06:28:01;18.97;;;12.03;;
7835;SDS011;3963;42.658;23.298;2023-05-10T06:30:28;21.97;;;13.20;;
7835;SDS011;3963;42.658;23.298;2023-05-10T06:32:55;16.53;;;11.23;;
7835;SDS011;3963;42.658;23.298;2023-05-10T06:35:24;18.83;;;13.30;;
7835;SDS011;3963;42.658;23.298;2023-05-10T06:37:51;17.33;;;11.73;;
7835;SDS011;3963;42.658;23.298;2023-05-10T06:40:18;18.07;;;12.37;;
7835;SDS011;3963;42.658;23.298;2023-05-10T06:42:45;20.07;;;11.07;;
7835;SDS011;3963;42.658;23.298;2023-05-10T06:45:12;17.13;;;11.13;;
7835;SDS011;3963;42.658;23.298;2023-05-10T06:47:39;17.47;;;12.27;;
7835;SDS011;3963;42.658;23.298;2023-05-10T06:50:06;17.87;;;10.53;;
7835;SDS011;3963;42.658;23.298;2023-05-10T06:52:35;19.93;;;11.67;;
7835;SDS011;3963;42.658;23.298;2023-05-10T06:55:02;16.50;;;11.07;;
7835;SDS011;3963;42.658;23.298;2023-05-10T06:57:29;17.43;;;10.67;;
7835;SDS011;3963;42.658;23.298;2023-05-10T06:59:56;17.27;;;11.57;;
7835;SDS011;3963;42.658;23.298;2023-05-10T07:02:23;18.27;;;11.20;;
7835;SDS011;3963;42.658;23.298;2023-05-10T07:04:50;14.10;;;10.70;;
7835;SDS011;3963;42.658;23.298;2023-05-10T07:07:17;15.87;;;10.97;;
7835;SDS011;3963;42.658;23.298;2023-05-10T07:09:46;15.57;;;10.63;;
7835;SDS011;3963;42.658;23.298;2023-05-10T07:12:13;17.47;;;10.70;;
7835;SDS011;3963;42.658;23.298;2023-05-10T07:14:39;16.33;;;10.87;;
7835;SDS011;3963;42.658;23.298;2023-05-10T07:17:06;18.80;;;10.80;;
7835;SDS011;3963;42.658;23.298;2023-05-10T07:19:33;14.37;;;9.93;;
7835;SDS011;3963;42.658;23.298;2023-05-10T07:22:00;14.90;;;10.23;;
7835;SDS011;3963;42.658;23.298;2023-05-10T07:24:27;15.23;;;10.27;;
7835;SDS011;3963;42.658;23.298;2023-05-10T07:26:56;16.23;;;9.67;;
7835;SDS011;3963;42.658;23.298;2023-05-10T07:29:22;16.77;;;10.53;;
7835;SDS011;3963;42.658;23.298;2023-05-10T07:31:49;15.43;;;9.73;;
7835;SDS011;3963;42.658;23.298;2023-05-10T07:34:16;17.40;;;10.10;;
7835;SDS011;3963;42.658;23.298;2023-05-10T07:36:43;15.23;;;9.87;;
7835;SDS011;3963;42.658;23.298;2023-05-10T07:39:09;15.23;;;10.17;;
7835;SDS011;3963;42.658;23.298;2023-05-10T07:41:36;16.03;;;9.97;;
7835;SDS011;3963;42.658;23.298;2023-05-10T07:44:05;16.40;;;11.90;;
7835;SDS011;3963;42.658;23.298;2023-05-10T07:46:32;17.03;;;10.43;;
7835;SDS011;3963;42.658;23.298;2023-05-10T07:48:59;13.47;;;9.93;;
7835;SDS011;3963;42.658;23.298;2023-05-10T07:51:26;18.50;;;10.87;;
7835;SDS011;3963;42.658;23.298;2023-05-10T07:53:53;14.73;;;10.37;;
7835;SDS011;3963;42.658;23.298;2023-05-10T07:56:20;14.90;;;10.70;;
7835;SDS011;3963;42.658;23.298;2023-05-10T07:58:48;16.90;;;10.50;;
7835;SDS011;3963;42.658;23.298;2023-05-10T08:01:17;16.93;;;9.97;;
7835;SDS011;3963;42.658;23.298;2023-05-10T08:03:44;18.77;;;10.47;;
7835;SDS011;3963;42.658;23.298;2023-05-10T08:06:10;16.47;;;10.97;;
7835;SDS011;3963;42.658;23.298;2023-05-10T08:08:37;16.10;;;10.83;;
7835;SDS011;3963;42.658;23.298;2023-05-10T08:11:04;17.87;;;10.57;;
7835;SDS011;3963;42.658;23.298;2023-05-10T08:13:31;16.10;;;9.90;;
7835;SDS011;3963;42.658;23.298;2023-05-10T08:15:58;14.40;;;10.53;;
7835;SDS011;3963;42.658;23.298;2023-05-10T08:18:27;13.27;;;9.37;;
7835;SDS011;3963;42.658;23.298;2023-05-10T08:20:53;16.47;;;10.23;;
7835;SDS011;3963;42.658;23.298;2023-05-10T08:23:20;15.37;;;8.73;;
7835;SDS011;3963;42.658;23.298;2023-05-10T08:25:47;12.70;;;10.10;;
7835;SDS011;3963;42.658;23.298;2023-05-10T08:28:13;17.80;;;10.70;;
7835;SDS011;3963;42.658;23.298;2023-05-10T08:30:40;15.30;;;9.27;;
7835;SDS011;3963;42.658;23.298;2023-05-10T08:33:07;10.87;;;8.90;;
7835;SDS011;3963;42.658;23.298;2023-05-10T08:35:36;13.37;;;9.83;;
7835;SDS011;3963;42.658;23.298;2023-05-10T08:38:02;13.90;;;10.07;;
7835;SDS011;3963;42.658;23.298;2023-05-10T08:40:29;17.40;;;10.30;;
7835;SDS011;3963;42.658;23.298;2023-05-10T08:42:58;16.67;;;9.63;;
7835;SDS011;3963;42.658;23.298;2023-05-10T08:45:33;13.13;;;9.23;;
7835;SDS011;3963;42.658;23.298;2023-05-10T08:48:04;16.77;;;9.83;;
7835;SDS011;3963;42.658;23.298;2023-05-10T08:50:34;17.57;;;10.60;;
7835;SDS011;3963;42.658;23.298;2023-05-10T08:53:04;13.67;;;10.57;;
7835;SDS011;3963;42.658;23.298;2023-05-10T08:55:32;13.13;;;9.20;;
7835;SDS011;3963;42.658;23.298;2023-05-10T08:58:01;16.30;;;10.20;;
7835;SDS011;3963;42.658;23.298;2023-05-10T09:00:28;14.83;;;10.40;;
7835;SDS011;3963;42.658;23.298;2023-05-10T09:02:55;14.90;;;11.40;;
7835;SDS011;3963;42.658;23.298;2023-05-10T09:05:23;15.30;;;10.83;;
7835;SDS011;3963;42.658;23.298;2023-05-10T09:07:52;13.60;;;10.70;;
7835;SDS011;3963;42.658;23.298;2023-05-10T09:10:19;18.07;;;11.03;;
7835;SDS011;3963;42.658;23.298;2023-05-10T09:12:45;16.80;;;11.97;;
7835;SDS011;3963;42.658;23.298;2023-05-10T09:15:14;16.20;;;12.13;;
7835;SDS011;3963;42.658;23.298;2023-05-10T09:17:41;18.33;;;12.03;;
7835;SDS011;3963;42.658;23.298;2023-05-10T09:20:10;14.97;;;10.93;;
7835;SDS011;3963;42.658;23.298;2023-05-10T09:22:37;13.07;;;10.57;;
7835;SDS011;3963;42.658;23.298;2023-05-10T09:25:06;14.87;;;11.03;;
7835;SDS011;3963;42.658;23.298;2023-05-10T09:27:34;15.70;;;12.10;;
7835;SDS011;3963;42.658;23.298;2023-05-10T09:30:01;18.17;;;13.70;;
7835;SDS011;3963;42.658;23.298;2023-05-10T09:32:37;19.93;;;11.57;;
7835;SDS011;3963;42.658;23.298;2023-05-10T09:35:08;16.20;;;12.07;;
7835;SDS011;3963;42.658;23.298;2023-05-10T09:37:35;15.53;;;11.20;;
7835;SDS011;3963;42.658;23.298;2023-05-10T09:40:07;13.37;;;10.63;;
7835;SDS011;3963;42.658;23.298;2023-05-10T09:42:38;15.53;;;10.70;;
7835;SDS011;3963;42.658;23.298;2023-05-10T09:45:05;17.03;;;11.03;;
7835;SDS011;3963;42.658;23.298;2023-05-10T09:47:33;16.40;;;11.60;;
7835;SDS011;3963;42.658;23.298;2023-05-10T09:50:01;15.70;;;11.00;;
7835;SDS011;3963;42.658;23.298;2023-05-10T09:52:29;16.90;;;11.00;;
7835;SDS011;3963;42.658;23.298;2023-05-10T09:54:57;14.37;;;9.93;;
7835;SDS011;3963;42.658;23.298;2023-05-10T09:57:25;18.93;;;11.00;;
7835;SDS011;3963;42.658;23.298;2023-05-10T09:59:52;16.70;;;10.63;;
7835;SDS011;3963;42.658;23.298;2023-05-10T10:02:20;16.63;;;9.97;;
7835;SDS011;3963;42.658;23.298;2023-05-10T10:04:49;15.10;;;11.17;;
7835;SDS011;3963;42.658;23.298;2023-05-10T10:07:17;14.30;;;10.90;;
7835;SDS011;3963;42.658;23.298;2023-05-10T10:09:48;15.83;;;10.37;;
7835;SDS011;3963;42.658;23.298;2023-05-10T10:12:15;13.10;;;10.87;;
7835;SDS011;3963;42.658;23.298;2023-05-10T10:14:44;13.87;;;8.93;;
7835;SDS011;3963;42.658;23.298;2023-05-10T10:17:12;14.23;;;9.57;;
7835;SDS011;3963;42.658;23.298;2023-05-10T10:19:39;12.03;;;9.33;;
7835;SDS011;3963;42.658;23.298;2023-05-10T10:22:06;13.50;;;9.43;;
7835;SDS011;3963;42.658;23.298;2023-05-10T10:24:35;11.93;;;9.80;;
7835;SDS011;3963;42.658;23.298;2023-05-10T10:27:04;13.73;;;9.90;;
7835;SDS011;3963;42.658;23.298;2023-05-10T10:29:39;18.47;;;9.70;;
7835;SDS011;3963;42.658;23.298;2023-05-10T10:32:19;13.70;;;9.13;;
7835;SDS011;3963;42.658;23.298;2023-05-10T10:34:56;10.70;;;8.67;;
7835;SDS011;3963;42.658;23.298;2023-05-10T10:37:23;11.47;;;8.10;;
7835;SDS011;3963;42.658;23.298;2023-05-10T10:42:49;15.60;;;9.60;;
7835;SDS011;3963;42.658;23.298;2023-05-10T10:45:16;10.67;;;9.00;;
7835;SDS011;3963;42.658;23.298;2023-05-10T10:47:44;11.17;;;8.63;;
7835;SDS011;3963;42.658;23.298;2023-05-10T10:50:11;14.40;;;8.13;;
7835;SDS011;3963;42.658;23.298;2023-05-10T10:52:39;13.93;;;9.50;;
7835;SDS011;3963;42.658;23.298;2023-05-10T10:55:07;12.17;;;8.43;;
7835;SDS011;3963;42.658;23.298;2023-05-10T10:57:45;11.90;;;8.77;;
7835;SDS011;3963;42.658;23.298;2023-05-10T11:00:24;14.87;;;8.33;;
7835;SDS011;3963;42.658;23.298;2023-05-10T11:02:55;9.83;;;8.07;;
7835;SDS011;3963;42.658;23.298;2023-05-10T11:05:34;11.57;;;8.87;;
7835;SDS011;3963;42.658;23.298;2023-05-10T11:08:06;10.50;;;8.37;;
7835;SDS011;3963;42.658;23.298;2023-05-10T11:10:35;10.63;;;7.80;;
7835;SDS011;3963;42.658;23.298;2023-05-10T11:13:03;11.13;;;8.40;;
7835;SDS011;3963;42.658;23.298;2023-05-10T11:15:32;11.67;;;8.47;;
7835;SDS011;3963;42.658;23.298;2023-05-10T11:18:01;13.43;;;9.13;;
7835;SDS011;3963;42.658;23.298;2023-05-10T11:20:43;11.37;;;8.87;;
7835;SDS011;3963;42.658;23.298;2023-05-10T11:23:12;12.17;;;8.10;;
7835;SDS011;3963;42.658;23.298;2023-05-10T11:25:43;11.23;;;8.70;;
7835;SDS011;3963;42.658;23.298;2023-05-10T11:28:10;12.20;;;8.47;;
7835;SDS011;3963;42.658;23.298;2023-05-10T11:30:39;9.77;;;7.67;;
7835;SDS011;3963;42.658;23.298;2023-05-10T11:33:08;11.93;;;8.07;;
7835;SDS011;3963;42.658;23.298;2023-05-10T11:35:38;13.90;;;8.37;;
7835;SDS011;3963;42.658;23.298;2023-05-10T11:38:06;9.50;;;8.10;;
7835;SDS011;3963;42.658;23.298;2023-05-10T11:40:33;11.63;;;8.67;;
7835;SDS011;3963;42.658;23.298;2023-05-10T11:43:00;11.07;;;8.40;;
7835;SDS011;3963;42.658;23.298;2023-05-10T11:45:28;10.20;;;7.80;;
7835;SDS011;3963;42.658;23.298;2023-05-10T11:47:58;13.37;;;7.60;;
7835;SDS011;3963;42.658;23.298;2023-05-10T11:50:27;10.30;;;7.70;;
7835;SDS011;3963;42.658;23.298;2023-05-10T11:52:54;10.30;;;7.57;;
7835;SDS011;3963;42.658;23.298;2023-05-10T11:55:22;10.37;;;8.53;;
7835;SDS011;3963;42.658;23.298;2023-05-10T11:57:51;13.13;;;8.20;;
7835;SDS011;3963;42.658;23.298;2023-05-10T12:00:18;16.33;;;8.83;;
7835;SDS011;3963;42.658;23.298;2023-05-10T12:02:45;10.90;;;9.07;;
7835;SDS011;3963;42.658;23.298;2023-05-10T12:05:12;11.97;;;8.93;;
7835;SDS011;3963;42.658;23.298;2023-05-10T12:07:41;11.27;;;8.60;;
7835;SDS011;3963;42.658;23.298;2023-05-10T12:10:08;11.87;;;9.90;;
7835;SDS011;3963;42.658;23.298;2023-05-10T12:12:39;14.17;;;8.67;;
7835;SDS011;3963;42.658;23.298;2023-05-10T12:15:12;13.03;;;8.73;;
7835;SDS011;3963;42.658;23.298;2023-05-10T12:17:43;13.80;;;9.43;;
7835;SDS011;3963;42.658;23.298;2023-05-10T12:20:13;14.93;;;9.60;;
7835;SDS011;3963;42.658;23.298;2023-05-10T12:22:44;12.23;;;8.97;;
7835;SDS011;3963;42.658;23.298;2023-05-10T12:25:12;13.10;;;8.10;;
7835;SDS011;3963;42.658;23.298;2023-05-10T12:27:39;12.50;;;9.10;;
7835;SDS011;3963;42.658;23.298;2023-05-10T12:30:06;12.83;;;9.63;;
7835;SDS011;3963;42.658;23.298;2023-05-10T12:32:38;16.17;;;10.57;;
7835;SDS011;3963;42.658;23.298;2023-05-10T12:35:06;15.50;;;10.20;;
7835;SDS011;3963;42.658;23.298;2023-05-10T12:37:33;16.37;;;10.90;;
7835;SDS011;3963;42.658;23.298;2023-05-10T12:40:06;13.33;;;9.50;;
7835;SDS011;3963;42.658;23.298;2023-05-10T12:42:34;13.77;;;10.10;;
7835;SDS011;3963;42.658;23.298;2023-05-10T12:45:02;14.60;;;10.53;;
7835;SDS011;3963;42.658;23.298;2023-05-10T12:47:29;14.37;;;10.03;;
7835;SDS011;3963;42.658;23.298;2023-05-10T12:49:56;14.07;;;10.10;;
7835;SDS011;3963;42.658;23.298;2023-05-10T12:52:22;15.20;;;9.33;;
7835;SDS011;3963;42.658;23.298;2023-05-10T12:54:49;14.03;;;10.20;;
7835;SDS011;3963;42.658;23.298;2023-05-10T12:57:18;15.77;;;10.80;;
7835;SDS011;3963;42.658;23.298;2023-05-10T12:59:44;16.23;;;10.70;;
7835;SDS011;3963;42.658;23.298;2023-05-10T13:02:11;14.90;;;9.90;;
7835;SDS011;3963;42.658;23.298;2023-05-10T13:04:39;16.37;;;10.43;;
7835;SDS011;3963;42.658;23.298;2023-05-10T13:07:07;12.93;;;10.17;;
7835;SDS011;3963;42.658;23.298;2023-05-10T13:09:34;15.90;;;9.63;;
7835;SDS011;3963;42.658;23.298;2023-05-10T13:12:01;12.67;;;10.30;;
7835;SDS011;3963;42.658;23.298;2023-05-10T13:14:31;14.40;;;9.80;;
7835;SDS011;3963;42.658;23.298;2023-05-10T13:16:58;13.23;;;9.83;;
7835;SDS011;3963;42.658;23.298;2023-05-10T13:19:25;13.77;;;9.73;;
7835;SDS011;3963;42.658;23.298;2023-05-10T13:21:53;16.20;;;9.87;;
7835;SDS011;3963;42.658;23.298;2023-05-10T13:24:20;13.90;;;9.83;;
7835;SDS011;3963;42.658;23.298;2023-05-10T13:26:47;21.27;;;9.50;;
7835;SDS011;3963;42.658;23.298;2023-05-10T13:29:14;13.93;;;9.63;;
7835;SDS011;3963;42.658;23.298;2023-05-10T13:31:44;13.30;;;9.80;;
7835;SDS011;3963;42.658;23.298;2023-05-10T13:34:11;15.47;;;9.73;;
7835;SDS011;3963;42.658;23.298;2023-05-10T13:36:38;13.83;;;9.23;;
7835;SDS011;3963;42.658;23.298;2023-05-10T13:39:05;13.43;;;8.87;;
7835;SDS011;3963;42.658;23.298;2023-05-10T13:41:32;13.77;;;9.37;;
7835;SDS011;3963;42.658;23.298;2023-05-10T13:43:59;11.37;;;9.37;;
7835;SDS011;3963;42.658;23.298;2023-05-10T13:46:25;15.13;;;9.67;;
7835;SDS011;3963;42.658;23.298;2023-05-10T13:48:53;15.97;;;8.87;;
7835;SDS011;3963;42.658;23.298;2023-05-10T13:51:20;15.63;;;10.50;;
7835;SDS011;3963;42.658;23.298;2023-05-10T13:53:47;17.33;;;11.20;;
7835;SDS011;3963;42.658;23.298;2023-05-10T13:59:05;14.20;;;9.50;;
7835;SDS011;3963;42.658;23.298;2023-05-10T14:01:32;14.17;;;9.40;;
7835;SDS011;3963;42.658;23.298;2023-05-10T14:04:01;11.70;;;9.00;;
7835;SDS011;3963;42.658;23.298;2023-05-10T14:06:28;13.83;;;7.97;;
7835;SDS011;3963;42.658;23.298;2023-05-10T14:08:55;19.23;;;9.07;;
7835;SDS011;3963;42.658;23.298;2023-05-10T14:11:22;11.40;;;8.67;;
7835;SDS011;3963;42.658;23.298;2023-05-10T14:13:49;13.40;;;8.57;;
7835;SDS011;3963;42.658;23.298;2023-05-10T14:16:16;13.30;;;9.47;;
7835;SDS011;3963;42.658;23.298;2023-05-10T14:18:42;13.57;;;8.83;;
7835;SDS011;3963;42.658;23.298;2023-05-10T14:21:10;11.80;;;8.83;;
7835;SDS011;3963;42.658;23.298;2023-05-10T14:23:37;15.17;;;9.70;;
7835;SDS011;3963;42.658;23.298;2023-05-10T14:26:04;13.53;;;9.47;;
7835;SDS011;3963;42.658;23.298;2023-05-10T14:28:31;12.83;;;9.27;;
7835;SDS011;3963;42.658;23.298;2023-05-10T14:30:58;16.70;;;10.03;;
7835;SDS011;3963;42.658;23.298;2023-05-10T14:33:25;21.97;;;10.97;;
7835;SDS011;3963;42.658;23.298;2023-05-10T14:35:53;12.77;;;9.33;;
7835;SDS011;3963;42.658;23.298;2023-05-10T14:38:23;12.87;;;9.70;;
7835;SDS011;3963;42.658;23.298;2023-05-10T14:40:49;15.23;;;9.53;;
7835;SDS011;3963;42.658;23.298;2023-05-10T14:43:16;13.37;;;9.37;;
7835;SDS011;3963;42.658;23.298;2023-05-10T14:45:43;15.20;;;10.13;;
7835;SDS011;3963;42.658;23.298;2023-05-10T14:48:11;12.30;;;8.70;;
7835;SDS011;3963;42.658;23.298;2023-05-10T14:50:40;12.60;;;9.10;;
7835;SDS011;3963;42.658;23.298;2023-05-10T14:56:03;12.17;;;9.43;;
7835;SDS011;3963;42.658;23.298;2023-05-10T14:58:30;15.30;;;8.50;;